Time;durP1;ratioP1;P1;durP2;ratioP2;P2;SDS_P1;SDS_P2;PMS_P1;PMS_P2;Temp;Humidity;BMP_temperature;BMP_pressure;BME280_temperature;BME280_humidity;BME280_pressure;Samples;Min_cycle;Max_cycle;Signal;HPM_P1;HPM_P2
2024/01/12 00:01:32;;;;;;;6.60;4.95;;;;;;;;;;5037275;28;20024;-86
2024/01/12 00:03:57;;;;;;;6.68;4.68;;;;;;;;;;5056732;28;20025;-85
2024/01/12 00:06:23;;;;;;;6.65;5.10;;;;;;;;;;5061620;28;20036;-84
2024/01/12 00:08:48;;;;;;;5.63;5.13;;;;;;;;;;5041857;28;20067;-85
2024/01/12 00:11:14;;;;;;;4.68;4.15;;;;;;;;;;5054918;28;20356;-85
2024/01/12 00:13:39;;;;;;;4.82;3.35;;;;;;;;;;5063492;28;20017;-85
2024/01/12 00:16:06;;;;;;;7.78;5.18;;;;;;;;;;5069805;28;20020;-85
2024/01/12 00:18:31;;;;;;;8.65;4.30;;;;;;;;;;5072698;28;20017;-85
2024/01/12 00:20:57;;;;;;;8.50;4.45;;;;;;;;;;5072111;28;20031;-86
2024/01/12 00:23:22;;;;;;;7.72;4.00;;;;;;;;;;5061454;28;20402;-86
2024/01/12 00:25:47;;;;;;;13.10;5.57;;;;;;;;;;5078353;28;20021;-86
2024/01/12 00:28:13;;;;;;;7.65;5.75;;;;;;;;;;5064557;28;20024;-85
2024/01/12 00:30:38;;;;;;;4.03;3.65;;;;;;;;;;5042331;28;20123;-85
2024/01/12 00:33:05;;;;;;;9.77;6.78;;;;;;;;;;5061166;28;20138;-85
2024/01/12 00:35:31;;;;;;;11.82;4.20;;;;;;;;;;5065446;28;20039;-85
2024/01/12 00:37:56;;;;;;;10.77;5.50;;;;;;;;;;5059519;28;20029;-86
2024/01/12 00:40:21;;;;;;;4.63;3.92;;;;;;;;;;5036460;28;20068;-84
2024/01/12 00:42:47;;;;;;;13.70;5.15;;;;;;;;;;5041596;28;20037;-86
2024/01/12 00:45:12;;;;;;;13.35;6.10;;;;;;;;;;5060602;28;20085;-83
2024/01/12 00:47:37;;;;;;;11.48;5.65;;;;;;;;;;5063211;28;20029;-83
2024/01/12 00:50:06;;;;;;;6.80;4.68;;;;;;;;;;5039871;28;20126;-83
2024/01/12 00:52:34;;;;;;;7.05;3.88;;;;;;;;;;5037034;28;20483;-83
2024/01/12 00:55:03;;;;;;;5.07;4.43;;;;;;;;;;5054216;28;20048;-84
2024/01/12 00:57:37;;;;;;;4.88;2.85;;;;;;;;;;5059013;28;20116;-83
2024/01/12 01:00:24;;;;;;;5.45;4.00;;;;;;;;;;5055136;28;20049;-85
2024/01/12 01:02:49;;;;;;;5.07;4.28;;;;;;;;;;5056029;28;20683;-84
2024/01/12 01:05:14;;;;;;;5.78;5.25;;;;;;;;;;5037032;28;20123;-84
2024/01/12 01:07:39;;;;;;;7.65;4.47;;;;;;;;;;5063664;28;20024;-85
2024/01/12 01:10:05;;;;;;;4.40;4.00;;;;;;;;;;5063819;28;20118;-86
2024/01/12 01:12:31;;;;;;;6.68;3.92;;;;;;;;;;5044946;28;20075;-85
2024/01/12 01:14:56;;;;;;;5.15;4.63;;;;;;;;;;5043717;28;20398;-84
2024/01/12 01:17:22;;;;;;;16.40;5.53;;;;;;;;;;5065528;28;20099;-85
2024/01/12 01:19:47;;;;;;;4.25;3.50;;;;;;;;;;5057591;28;20040;-84
2024/01/12 01:22:12;;;;;;;11.77;4.93;;;;;;;;;;5061099;28;20039;-85
2024/01/12 01:24:38;;;;;;;13.85;6.95;;;;;;;;;;5063904;28;20028;-85
2024/01/12 01:27:03;;;;;;;16.65;4.32;;;;;;;;;;5047167;28;20437;-84
2024/01/12 01:29:29;;;;;;;6.47;5.80;;;;;;;;;;5070073;28;20029;-86
2024/01/12 01:31:54;;;;;;;9.30;5.82;;;;;;;;;;5079698;28;20013;-84
2024/01/12 01:34:19;;;;;;;9.82;4.15;;;;;;;;;;5070509;28;20116;-84
2024/01/12 01:36:45;;;;;;;4.93;4.13;;;;;;;;;;5067422;28;20025;-84
2024/01/12 01:39:10;;;;;;;11.32;4.50;;;;;;;;;;5041616;28;20021;-86
2024/01/12 01:41:36;;;;;;;4.72;4.25;;;;;;;;;;5045304;28;20051;-85
2024/01/12 01:44:01;;;;;;;6.93;4.93;;;;;;;;;;5066200;28;20028;-84
2024/01/12 01:46:27;;;;;;;9.50;4.88;;;;;;;;;;5069459;28;20055;-85
2024/01/12 01:48:52;;;;;;;6.15;4.47;;;;;;;;;;5063239;28;20352;-86
2024/01/12 01:51:18;;;;;;;14.77;3.97;;;;;;;;;;5062866;28;20017;-85
2024/01/12 01:53:43;;;;;;;6.28;5.70;;;;;;;;;;5059302;28;20040;-85
2024/01/12 01:56:10;;;;;;;10.73;6.47;;;;;;;;;;5052290;28;20071;-86
2024/01/12 01:58:36;;;;;;;4.60;4.20;;;;;;;;;;5040558;28;20028;-85
2024/01/12 02:01:02;;;;;;;5.85;4.15;;;;;;;;;;5078864;28;20017;-85
2024/01/12 02:03:28;;;;;;;9.68;3.83;;;;;;;;;;5060553;28;20029;-86
2024/01/12 02:05:54;;;;;;;25.77;4.63;;;;;;;;;;5063559;28;20013;-84
2024/01/12 02:08:20;;;;;;;13.10;6.88;;;;;;;;;;5065698;28;20091;-85
2024/01/12 02:10:45;;;;;;;7.40;5.72;;;;;;;;;;5055911;28;20020;-85
2024/01/12 02:13:11;;;;;;;9.68;4.60;;;;;;;;;;5055747;28;20053;-85
2024/01/12 02:15:36;;;;;;;12.82;6.15;;;;;;;;;;5058468;28;20079;-86
2024/01/12 02:18:01;;;;;;;6.45;4.95;;;;;;;;;;5068316;28;20025;-85
2024/01/12 02:20:27;;;;;;;7.10;4.10;;;;;;;;;;5055550;28;20115;-86
2024/01/12 02:22:52;;;;;;;4.63;3.83;;;;;;;;;;5066919;28;20085;-86
2024/01/12 02:25:17;;;;;;;3.78;3.47;;;;;;;;;;5044296;28;20116;-84
2024/01/12 02:27:43;;;;;;;11.27;4.65;;;;;;;;;;5075302;28;20032;-84
2024/01/12 02:30:09;;;;;;;7.78;5.25;;;;;;;;;;5079957;28;20099;-84
2024/01/12 02:32:35;;;;;;;6.85;4.57;;;;;;;;;;5059692;28;20089;-85
2024/01/12 02:35:00;;;;;;;12.60;4.22;;;;;;;;;;5042285;28;20047;-84
2024/01/12 02:37:25;;;;;;;4.68;3.00;;;;;;;;;;5052146;28;20030;-85
2024/01/12 02:39:50;;;;;;;15.38;5.63;;;;;;;;;;5067452;28;20103;-84
2024/01/12 02:42:16;;;;;;;4.20;3.90;;;;;;;;;;5067493;28;20025;-86
2024/01/12 02:44:41;;;;;;;7.95;5.22;;;;;;;;;;5060736;28;20028;-84
2024/01/12 02:47:07;;;;;;;5.68;4.47;;;;;;;;;;5060763;28;20032;-85
2024/01/12 02:49:33;;;;;;;5.20;4.70;;;;;;;;;;5063569;28;20108;-84
2024/01/12 02:51:58;;;;;;;8.05;4.40;;;;;;;;;;5072447;28;20090;-85
2024/01/12 02:54:24;;;;;;;2.83;2.53;;;;;;;;;;5067891;28;20036;-84
2024/01/12 02:56:49;;;;;;;5.68;5.18;;;;;;;;;;5074510;28;20070;-84
2024/01/12 02:59:14;;;;;;;4.88;3.88;;;;;;;;;;5047242;28;20025;-84
2024/01/12 03:01:40;;;;;;;3.30;3.03;;;;;;;;;;5074426;28;20112;-85
2024/01/12 03:04:05;;;;;;;5.13;4.13;;;;;;;;;;5067669;28;20033;-84
2024/01/12 03:06:30;;;;;;;4.65;4.25;;;;;;;;;;5058135;28;20111;-84
2024/01/12 03:08:55;;;;;;;4.80;4.15;;;;;;;;;;5079096;28;20106;-85
2024/01/12 03:11:21;;;;;;;4.50;4.10;;;;;;;;;;5048837;28;20119;-84
2024/01/12 03:13:46;;;;;;;5.32;4.47;;;;;;;;;;5078325;28;20042;-84
2024/01/12 03:16:21;;;;;;;5.93;4.07;;;;;;;;;;5063688;28;20027;-84
2024/01/12 03:18:48;;;;;;;6.10;5.47;;;;;;;;;;5050514;28;20566;-84
2024/01/12 03:21:14;;;;;;;4.43;2.90;;;;;;;;;;5059746;28;20029;-85
2024/01/12 03:23:39;;;;;;;5.63;3.80;;;;;;;;;;5064806;28;20451;-84
2024/01/12 03:26:05;;;;;;;9.95;5.72;;;;;;;;;;5056215;28;20036;-84
2024/01/12 03:28:30;;;;;;;5.93;3.80;;;;;;;;;;5062574;28;20032;-84
2024/01/12 03:30:55;;;;;;;7.88;6.95;;;;;;;;;;5063192;28;20154;-86
2024/01/12 03:33:21;;;;;;;3.55;3.28;;;;;;;;;;5054569;28;20028;-84
2024/01/12 03:35:47;;;;;;;4.85;3.65;;;;;;;;;;5065245;28;20021;-84
2024/01/12 03:38:12;;;;;;;11.07;4.63;;;;;;;;;;5062351;28;20033;-84
2024/01/12 03:40:38;;;;;;;3.78;3.25;;;;;;;;;;5057284;28;20033;-85
2024/01/12 03:43:03;;;;;;;5.38;4.88;;;;;;;;;;5070689;28;20024;-83
2024/01/12 03:45:28;;;;;;;15.55;6.32;;;;;;;;;;5033239;28;20020;-83
2024/01/12 03:47:54;;;;;;;6.10;5.20;;;;;;;;;;5060536;28;20032;-82
2024/01/12 03:50:19;;;;;;;9.15;4.72;;;;;;;;;;5075643;28;20024;-82
2024/01/12 03:52:44;;;;;;;7.80;4.20;;;;;;;;;;5076109;28;20028;-84
2024/01/12 03:55:10;;;;;;;4.15;3.35;;;;;;;;;;5045162;28;20025;-85
2024/01/12 03:57:35;;;;;;;3.33;2.97;;;;;;;;;;5055489;28;20059;-82
2024/01/12 04:00:00;;;;;;;6.40;4.13;;;;;;;;;;5075460;28;20051;-84
2024/01/12 04:02:26;;;;;;;5.68;3.83;;;;;;;;;;5062422;28;20103;-86
2024/01/12 04:04:51;;;;;;;6.95;3.85;;;;;;;;;;5063234;28;20048;-86
2024/01/12 04:07:17;;;;;;;8.02;4.32;;;;;;;;;;5064327;28;20020;-85
2024/01/12 04:09:43;;;;;;;12.82;5.13;;;;;;;;;;5048088;28;20021;-86
2024/01/12 04:12:09;;;;;;;6.28;5.05;;;;;;;;;;5060362;28;20083;-84
2024/01/12 04:14:34;;;;;;;9.90;4.68;;;;;;;;;;5058531;28;20032;-85
2024/01/12 04:16:59;;;;;;;5.05;3.38;;;;;;;;;;5058625;28;20021;-84
2024/01/12 04:19:25;;;;;;;4.00;3.45;;;;;;;;;;5066719;28;20428;-84
2024/01/12 04:21:50;;;;;;;6.90;5.63;;;;;;;;;;5066674;28;20040;-84
2024/01/12 04:24:16;;;;;;;5.30;4.15;;;;;;;;;;5066474;28;20028;-84
2024/01/12 04:26:42;;;;;;;5.45;4.60;;;;;;;;;;5073502;28;20075;-84
2024/01/12 04:29:07;;;;;;;4.43;3.15;;;;;;;;;;5068831;28;20112;-85
2024/01/12 04:31:33;;;;;;;3.97;3.60;;;;;;;;;;5053558;28;20040;-85
2024/01/12 04:33:58;;;;;;;13.57;5.32;;;;;;;;;;5067641;28;20427;-85
2024/01/12 04:36:23;;;;;;;4.10;3.80;;;;;;;;;;5054431;28;20020;-84
2024/01/12 04:38:49;;;;;;;8.63;3.78;;;;;;;;;;5077179;28;20020;-84
2024/01/12 04:41:14;;;;;;;7.57;3.38;;;;;;;;;;5072781;28;20028;-85
2024/01/12 04:43:40;;;;;;;3.88;3.20;;;;;;;;;;5052881;28;20032;-85
2024/01/12 04:46:05;;;;;;;5.32;3.97;;;;;;;;;;5073619;28;20048;-84
2024/01/12 04:48:30;;;;;;;4.10;3.28;;;;;;;;;;5054365;28;20028;-83
2024/01/12 04:50:56;;;;;;;5.93;3.20;;;;;;;;;;5041827;28;20079;-83
2024/01/12 04:53:21;;;;;;;5.55;2.60;;;;;;;;;;5060128;28;20090;-83
2024/01/12 04:55:46;;;;;;;7.88;4.28;;;;;;;;;;5061025;28;20031;-86
2024/01/12 04:58:11;;;;;;;4.88;4.10;;;;;;;;;;5080660;28;20074;-86
2024/01/12 05:00:37;;;;;;;4.80;2.78;;;;;;;;;;5062705;28;20434;-86
2024/01/12 05:03:02;;;;;;;6.50;3.97;;;;;;;;;;5073165;28;20027;-86
2024/01/12 05:05:27;;;;;;;11.85;6.00;;;;;;;;;;5058674;28;20037;-86
2024/01/12 05:07:53;;;;;;;3.20;1.98;;;;;;;;;;5057542;28;20027;-86
2024/01/12 05:10:18;;;;;;;4.57;4.18;;;;;;;;;;5054977;28;20012;-85
2024/01/12 05:12:43;;;;;;;4.35;3.80;;;;;;;;;;5059166;28;20079;-86
2024/01/12 05:15:09;;;;;;;5.55;3.28;;;;;;;;;;5056672;28;20017;-86
2024/01/12 05:17:34;;;;;;;5.93;3.72;;;;;;;;;;5066842;28;20052;-85
2024/01/12 05:20:06;;;;;;;11.45;4.88;;;;;;;;;;5071871;28;20029;-86
2024/01/12 05:22:32;;;;;;;10.85;4.45;;;;;;;;;;5052218;28;20447;-84
2024/01/12 05:24:57;;;;;;;4.88;3.83;;;;;;;;;;5068950;28;20075;-85
2024/01/12 05:27:22;;;;;;;4.22;3.38;;;;;;;;;;5061771;28;20024;-86
2024/01/12 05:29:48;;;;;;;6.05;4.82;;;;;;;;;;5055737;28;20035;-85
2024/01/12 05:32:13;;;;;;;4.75;3.13;;;;;;;;;;5053966;28;20435;-86
2024/01/12 05:34:39;;;;;;;4.25;3.95;;;;;;;;;;5044203;28;20637;-86
2024/01/12 05:37:04;;;;;;;4.30;3.90;;;;;;;;;;5067511;28;20134;-85
2024/01/12 05:39:29;;;;;;;4.55;4.15;;;;;;;;;;5079068;28;20040;-87
2024/01/12 05:41:54;;;;;;;7.95;5.30;;;;;;;;;;5082068;28;20024;-87
2024/01/12 05:44:20;;;;;;;7.38;4.35;;;;;;;;;;5082362;28;20384;-85
2024/01/12 05:46:45;;;;;;;6.03;3.88;;;;;;;;;;5080239;28;20020;-85
2024/01/12 05:49:10;;;;;;;4.07;2.55;;;;;;;;;;5081933;28;20029;-86
2024/01/12 05:51:36;;;;;;;6.18;3.33;;;;;;;;;;5082545;28;20052;-86
2024/01/12 05:54:01;;;;;;;4.35;3.38;;;;;;;;;;5080313;28;20115;-86
2024/01/12 05:56:26;;;;;;;7.80;4.40;;;;;;;;;;5079025;28;20033;-85
2024/01/12 05:58:52;;;;;;;8.32;4.15;;;;;;;;;;5067099;28;20038;-85
2024/01/12 06:01:18;;;;;;;5.05;4.22;;;;;;;;;;5063872;28;20406;-85
2024/01/12 06:03:46;;;;;;;15.00;7.10;;;;;;;;;;5062046;28;20037;-85
2024/01/12 06:06:12;;;;;;;4.13;3.50;;;;;;;;;;5047383;28;20104;-85
2024/01/12 06:08:37;;;;;;;4.90;4.50;;;;;;;;;;5051687;28;20067;-85
2024/01/12 06:11:03;;;;;;;7.82;4.47;;;;;;;;;;5073549;28;20027;-86
2024/01/12 06:13:29;;;;;;;12.23;4.70;;;;;;;;;;5070212;28;20036;-88
2024/01/12 06:15:54;;;;;;;4.13;3.38;;;;;;;;;;5043842;28;20084;-85
2024/01/12 06:18:19;;;;;;;7.90;5.22;;;;;;;;;;5048356;28;20025;-88
2024/01/12 06:20:45;;;;;;;7.53;4.78;;;;;;;;;;5065091;28;20025;-87
2024/01/12 06:23:10;;;;;;;5.85;3.13;;;;;;;;;;5052753;28;20086;-88
2024/01/12 06:25:36;;;;;;;8.57;3.25;;;;;;;;;;5050211;28;20016;-87
2024/01/12 06:28:05;;;;;;;4.80;3.30;;;;;;;;;;5056906;28;20432;-88
2024/01/12 06:30:31;;;;;;;17.38;7.05;;;;;;;;;;5057042;28;20020;-87
2024/01/12 06:32:58;;;;;;;3.45;2.95;;;;;;;;;;5074549;28;20080;-86
2024/01/12 06:35:23;;;;;;;2.38;2.28;;;;;;;;;;5075266;28;20547;-86
2024/01/12 06:37:48;;;;;;;2.97;2.78;;;;;;;;;;5072384;28;20044;-87
2024/01/12 06:40:14;;;;;;;3.45;2.97;;;;;;;;;;5062581;28;20049;-88
2024/01/12 06:42:41;;;;;;;7.38;3.47;;;;;;;;;;5054394;28;20016;-89
2024/01/12 06:45:08;;;;;;;4.05;3.65;;;;;;;;;;5057524;28;20064;-88
2024/01/12 06:47:34;;;;;;;2.22;2.10;;;;;;;;;;5054740;28;20024;-88
2024/01/12 06:50:00;;;;;;;3.42;3.17;;;;;;;;;;5054970;28;20044;-89
2024/01/12 06:52:25;;;;;;;5.63;3.90;;;;;;;;;;5059787;28;20107;-88
2024/01/12 06:54:50;;;;;;;3.72;2.92;;;;;;;;;;5063992;28;20049;-86
2024/01/12 06:57:16;;;;;;;2.47;2.28;;;;;;;;;;5040127;28;20071;-89
2024/01/12 06:59:41;;;;;;;9.05;3.72;;;;;;;;;;5036495;28;20074;-85
2024/01/12 07:02:07;;;;;;;3.63;3.22;;;;;;;;;;5063452;28;20083;-87
2024/01/12 07:04:32;;;;;;;8.85;3.58;;;;;;;;;;5047572;28;20021;-87
2024/01/12 07:06:58;;;;;;;7.22;5.65;;;;;;;;;;5059036;28;20036;-88
2024/01/12 07:09:23;;;;;;;4.43;3.45;;;;;;;;;;5068295;28;20037;-86
2024/01/12 07:11:49;;;;;;;4.57;3.40;;;;;;;;;;5056587;28;20107;-86
2024/01/12 07:14:14;;;;;;;5.78;3.17;;;;;;;;;;5075065;28;20029;-87
2024/01/12 07:16:40;;;;;;;6.13;4.78;;;;;;;;;;5054577;28;20024;-87
2024/01/12 07:19:06;;;;;;;1.00;1.00;;;;;;;;;;5055081;28;20036;-87
2024/01/12 07:21:32;;;;;;;5.05;4.65;;;;;;;;;;5056820;28;20055;-85
2024/01/12 07:23:58;;;;;;;4.68;3.88;;;;;;;;;;5039615;28;20542;-88
2024/01/12 07:26:23;;;;;;;6.28;3.83;;;;;;;;;;5050841;28;20025;-87
2024/01/12 07:28:49;;;;;;;4.75;3.47;;;;;;;;;;5072911;28;20098;-86
2024/01/12 07:31:14;;;;;;;9.05;5.45;;;;;;;;;;5089201;28;20013;-85
2024/01/12 07:33:39;;;;;;;5.00;3.22;;;;;;;;;;5069844;28;20080;-86
2024/01/12 07:36:05;;;;;;;4.97;4.55;;;;;;;;;;5065269;28;20037;-87
2024/01/12 07:38:30;;;;;;;4.72;3.05;;;;;;;;;;5058143;28;20489;-86
2024/01/12 07:40:56;;;;;;;14.52;5.20;;;;;;;;;;5077247;28;20117;-88
2024/01/12 07:43:21;;;;;;;8.10;5.65;;;;;;;;;;5076627;28;20025;-86
2024/01/12 07:45:47;;;;;;;6.45;4.35;;;;;;;;;;5059746;28;20082;-85
2024/01/12 07:48:12;;;;;;;14.13;6.20;;;;;;;;;;5060810;28;20112;-88
2024/01/12 07:50:38;;;;;;;4.50;3.85;;;;;;;;;;5087872;28;20053;-87
2024/01/12 07:53:04;;;;;;;8.00;4.70;;;;;;;;;;5091821;28;20108;-86
2024/01/12 07:55:29;;;;;;;5.82;4.88;;;;;;;;;;5081892;28;20024;-87
2024/01/12 07:57:54;;;;;;;6.90;4.22;;;;;;;;;;5069547;28;20027;-89
2024/01/12 08:00:20;;;;;;;4.00;2.63;;;;;;;;;;5041671;28;20474;-88
2024/01/12 08:02:45;;;;;;;8.05;4.60;;;;;;;;;;5046827;28;20028;-89
2024/01/12 08:05:11;;;;;;;6.28;3.47;;;;;;;;;;5046010;28;20474;-89
2024/01/12 08:07:37;;;;;;;5.40;4.85;;;;;;;;;;5055521;28;20021;-89
2024/01/12 08:10:03;;;;;;;11.45;7.15;;;;;;;;;;5044221;28;20517;-89
2024/01/12 08:12:28;;;;;;;18.65;4.57;;;;;;;;;;5035349;28;20705;-88
2024/01/12 08:14:54;;;;;;;8.82;5.72;;;;;;;;;;5047520;28;20603;-89
2024/01/12 08:17:19;;;;;;;12.18;5.93;;;;;;;;;;5057628;28;20542;-87
2024/01/12 08:19:44;;;;;;;4.82;3.08;;;;;;;;;;5057892;28;20051;-88
2024/01/12 08:22:10;;;;;;;6.20;5.03;;;;;;;;;;5075612;28;20024;-88
2024/01/12 08:24:35;;;;;;;6.53;3.95;;;;;;;;;;5058951;28;20462;-89
2024/01/12 08:27:00;;;;;;;6.97;4.72;;;;;;;;;;5074702;28;20020;-89
2024/01/12 08:29:25;;;;;;;7.70;4.68;;;;;;;;;;5057057;28;20134;-89
2024/01/12 08:31:51;;;;;;;9.07;5.28;;;;;;;;;;5074352;28;20108;-87
2024/01/12 08:34:17;;;;;;;5.32;4.63;;;;;;;;;;5047244;28;20055;-86
2024/01/12 08:36:43;;;;;;;11.02;7.43;;;;;;;;;;5072618;28;20029;-89
2024/01/12 08:39:08;;;;;;;11.07;5.80;;;;;;;;;;5074116;28;20054;-89
2024/01/12 08:41:33;;;;;;;9.05;5.88;;;;;;;;;;5057878;28;20028;-91
2024/01/12 08:43:58;;;;;;;7.15;6.35;;;;;;;;;;5075982;28;20034;-89
2024/01/12 08:46:24;;;;;;;21.85;8.18;;;;;;;;;;5061250;28;20024;-89
2024/01/12 08:48:49;;;;;;;11.43;9.45;;;;;;;;;;5059465;28;20020;-89
2024/01/12 08:51:15;;;;;;;16.17;7.60;;;;;;;;;;5080116;28;20039;-87
2024/01/12 08:53:40;;;;;;;12.55;5.68;;;;;;;;;;5044006;28;20033;-89
2024/01/12 08:56:07;;;;;;;6.75;4.95;;;;;;;;;;5037065;28;20029;-86
2024/01/12 08:58:33;;;;;;;12.32;7.85;;;;;;;;;;5044441;28;20021;-87
2024/01/12 09:00:58;;;;;;;27.83;7.47;;;;;;;;;;5055836;28;20035;-89
2024/01/12 09:03:24;;;;;;;22.48;9.55;;;;;;;;;;5050294;28;20033;-86
2024/01/12 09:05:49;;;;;;;19.45;7.10;;;;;;;;;;5039902;28;20074;-86
2024/01/12 09:08:15;;;;;;;18.98;9.45;;;;;;;;;;5078150;28;20024;-86
2024/01/12 09:10:40;;;;;;;8.15;6.72;;;;;;;;;;5062550;28;20082;-87
2024/01/12 09:13:05;;;;;;;11.20;6.65;;;;;;;;;;5056957;28;20025;-86
2024/01/12 09:15:31;;;;;;;13.50;6.68;;;;;;;;;;5069931;28;20035;-87
2024/01/12 09:17:56;;;;;;;11.45;7.63;;;;;;;;;;5058215;28;20052;-87
2024/01/12 09:20:21;;;;;;;25.00;8.88;;;;;;;;;;5037508;28;20029;-86
2024/01/12 09:22:48;;;;;;;12.85;7.15;;;;;;;;;;5055341;28;20120;-87
2024/01/12 09:25:13;;;;;;;20.75;7.50;;;;;;;;;;5037843;28;20017;-87
2024/01/12 09:27:38;;;;;;;12.25;7.05;;;;;;;;;;5038535;28;20550;-86
2024/01/12 09:30:04;;;;;;;11.40;6.55;;;;;;;;;;5055499;28;20021;-87
2024/01/12 09:32:30;;;;;;;17.77;11.13;;;;;;;;;;5068521;28;20032;-87
2024/01/12 09:34:55;;;;;;;17.63;8.35;;;;;;;;;;5067641;28;20032;-87
2024/01/12 09:37:20;;;;;;;11.60;7.70;;;;;;;;;;5075299;28;20071;-88
2024/01/12 09:39:46;;;;;;;23.45;10.45;;;;;;;;;;5065309;28;20032;-88
2024/01/12 09:42:14;;;;;;;15.13;8.57;;;;;;;;;;5077825;28;20475;-86
2024/01/12 09:44:45;;;;;;;16.95;6.43;;;;;;;;;;5068152;28;20043;-87
2024/01/12 09:47:12;;;;;;;17.55;7.97;;;;;;;;;;5070118;28;20036;-87
2024/01/12 09:49:37;;;;;;;12.23;8.48;;;;;;;;;;5074810;28;20075;-88
2024/01/12 09:52:03;;;;;;;16.52;11.35;;;;;;;;;;5076412;28;20398;-87
2024/01/12 09:54:29;;;;;;;16.90;8.98;;;;;;;;;;5041447;28;20032;-87
2024/01/12 09:56:58;;;;;;;13.43;7.65;;;;;;;;;;5041550;28;20055;-87
2024/01/12 09:59:25;;;;;;;20.00;9.50;;;;;;;;;;5058204;28;20029;-86
2024/01/12 10:01:50;;;;;;;13.93;8.00;;;;;;;;;;5058056;28;20033;-88
2024/01/12 10:04:16;;;;;;;10.65;6.80;;;;;;;;;;5058625;28;20041;-88
2024/01/12 10:06:41;;;;;;;13.65;8.35;;;;;;;;;;5054942;28;20025;-87
2024/01/12 10:09:08;;;;;;;8.30;5.68;;;;;;;;;;5059941;28;20033;-87
2024/01/12 10:11:33;;;;;;;11.40;7.50;;;;;;;;;;5063012;28;20025;-87
2024/01/12 10:13:58;;;;;;;18.77;9.32;;;;;;;;;;5069634;28;20029;-86
2024/01/12 10:16:28;;;;;;;17.30;7.75;;;;;;;;;;5059482;28;20021;-87
2024/01/12 10:18:58;;;;;;;17.90;7.95;;;;;;;;;;5062898;28;20020;-87
2024/01/12 10:21:24;;;;;;;13.77;8.85;;;;;;;;;;5081094;28;20024;-87
2024/01/12 10:24:06;;;;;;;9.45;6.05;;;;;;;;;;5049297;28;20040;-88
2024/01/12 10:26:31;;;;;;;10.07;7.23;;;;;;;;;;5065305;28;20024;-86
2024/01/12 10:29:03;;;;;;;9.27;7.20;;;;;;;;;;5076540;28;20108;-87
2024/01/12 10:31:29;;;;;;;14.30;6.50;;;;;;;;;;5068378;28;20055;-86
2024/01/12 10:33:58;;;;;;;7.57;6.70;;;;;;;;;;5065369;28;20043;-87
2024/01/12 10:36:27;;;;;;;13.82;9.23;;;;;;;;;;5042769;28;20032;-88
2024/01/12 10:38:53;;;;;;;12.35;6.03;;;;;;;;;;5052553;28;20029;-87
2024/01/12 10:41:24;;;;;;;12.38;6.53;;;;;;;;;;5082190;28;20020;-86
2024/01/12 10:43:54;;;;;;;22.75;6.88;;;;;;;;;;5073511;28;20051;-87
2024/01/12 10:46:45;;;;;;;17.65;6.82;;;;;;;;;;5068331;28;20033;-88
2024/01/12 10:49:17;;;;;;;11.57;6.03;;;;;;;;;;5057071;28;20051;-86
2024/01/12 10:52:08;;;;;;;17.63;7.88;;;;;;;;;;5067647;28;20052;-87
2024/01/12 10:55:05;;;;;;;8.13;6.22;;;;;;;;;;5058143;28;20024;-86
2024/01/12 10:57:32;;;;;;;13.38;6.85;;;;;;;;;;5077868;28;20035;-86
2024/01/12 10:59:59;;;;;;;11.32;6.40;;;;;;;;;;5059998;28;20036;-86
2024/01/12 11:02:25;;;;;;;16.63;8.63;;;;;;;;;;5048063;28;20108;-86
2024/01/12 11:04:51;;;;;;;5.32;3.67;;;;;;;;;;5067220;28;20021;-87
2024/01/12 11:07:18;;;;;;;14.10;6.82;;;;;;;;;;5056166;28;20032;-87
2024/01/12 11:09:43;;;;;;;13.70;6.80;;;;;;;;;;5041868;28;20028;-88
2024/01/12 11:12:12;;;;;;;10.63;6.72;;;;;;;;;;5040130;28;20049;-88
2024/01/12 11:14:39;;;;;;;16.55;9.63;;;;;;;;;;5066867;28;20426;-86
2024/01/12 11:17:08;;;;;;;12.80;7.78;;;;;;;;;;5060546;28;20020;-87
2024/01/12 11:19:34;;;;;;;15.40;8.65;;;;;;;;;;5043609;28;20536;-86
2024/01/12 11:22:06;;;;;;;9.07;5.90;;;;;;;;;;5049790;28;20062;-88
2024/01/12 11:24:32;;;;;;;21.98;7.07;;;;;;;;;;5072392;28;20025;-88
2024/01/12 11:26:58;;;;;;;14.40;9.55;;;;;;;;;;5058434;28;20059;-87
2024/01/12 11:29:30;;;;;;;11.95;7.93;;;;;;;;;;5077757;28;20040;-88
2024/01/12 11:32:01;;;;;;;6.88;4.97;;;;;;;;;;5062555;28;20021;-88
2024/01/12 11:34:30;;;;;;;14.88;8.35;;;;;;;;;;5043281;28;20104;-87
2024/01/12 11:36:58;;;;;;;6.05;5.38;;;;;;;;;;5063817;28;20017;-86
2024/01/12 11:39:24;;;;;;;19.13;8.80;;;;;;;;;;5080614;28;20020;-87
2024/01/12 11:41:52;;;;;;;18.73;6.32;;;;;;;;;;5078969;28;20059;-87
2024/01/12 11:44:17;;;;;;;14.27;6.90;;;;;;;;;;5058183;28;20158;-86
2024/01/12 11:46:43;;;;;;;15.18;8.98;;;;;;;;;;5064264;28;20064;-87
2024/01/12 11:49:09;;;;;;;9.63;6.57;;;;;;;;;;5068997;28;20030;-86
2024/01/12 11:51:34;;;;;;;15.20;6.63;;;;;;;;;;5071197;28;20028;-87
2024/01/12 11:53:59;;;;;;;8.60;5.65;;;;;;;;;;5059022;28;20051;-87
2024/01/12 11:56:26;;;;;;;13.32;6.68;;;;;;;;;;5059111;28;20081;-86
2024/01/12 11:58:52;;;;;;;6.00;4.57;;;;;;;;;;5076908;28;20040;-87
2024/01/12 12:01:19;;;;;;;13.23;6.35;;;;;;;;;;5076137;28;20025;-87
2024/01/12 12:03:45;;;;;;;16.13;8.95;;;;;;;;;;5071962;28;20135;-87
2024/01/12 12:06:11;;;;;;;7.22;4.32;;;;;;;;;;5039663;28;20124;-86
2024/01/12 12:08:37;;;;;;;10.77;5.13;;;;;;;;;;5040467;28;20072;-86
2024/01/12 12:11:03;;;;;;;10.70;4.95;;;;;;;;;;5060220;28;20021;-84
2024/01/12 12:13:29;;;;;;;15.32;7.90;;;;;;;;;;5060457;28;20494;-86
2024/01/12 12:15:55;;;;;;;10.15;5.05;;;;;;;;;;5058643;28;20052;-86
2024/01/12 12:18:20;;;;;;;10.57;5.72;;;;;;;;;;5044414;28;20029;-85
2024/01/12 12:20:47;;;;;;;12.50;5.15;;;;;;;;;;5068066;28;20386;-85
2024/01/12 12:23:13;;;;;;;4.75;4.25;;;;;;;;;;5079628;28;20024;-86
2024/01/12 12:25:38;;;;;;;19.48;6.05;;;;;;;;;;5080282;28;20017;-87
2024/01/12 12:28:04;;;;;;;13.45;5.72;;;;;;;;;;5080810;28;20390;-87
2024/01/12 12:30:30;;;;;;;12.40;4.45;;;;;;;;;;5084212;28;20025;-87
2024/01/12 12:32:59;;;;;;;11.40;5.60;;;;;;;;;;5074794;28;20029;-86
2024/01/12 12:35:24;;;;;;;11.95;6.38;;;;;;;;;;5077844;28;20028;-86
2024/01/12 12:37:53;;;;;;;6.85;4.20;;;;;;;;;;5078871;28;20016;-85
2024/01/12 12:40:19;;;;;;;9.68;5.70;;;;;;;;;;5060342;28;20108;-86
2024/01/12 12:42:47;;;;;;;14.88;6.82;;;;;;;;;;5040934;28;20407;-86
2024/01/12 12:45:15;;;;;;;9.75;6.10;;;;;;;;;;5059730;28;20040;-87
2024/01/12 12:47:40;;;;;;;5.68;3.92;;;;;;;;;;5039874;28;20020;-87
2024/01/12 12:50:11;;;;;;;15.27;7.40;;;;;;;;;;5050894;28;20086;-86
2024/01/12 12:52:37;;;;;;;7.32;5.65;;;;;;;;;;5046641;28;20052;-87
2024/01/12 12:55:03;;;;;;;10.93;6.15;;;;;;;;;;5076963;28;20028;-86
2024/01/12 12:57:29;;;;;;;7.53;4.97;;;;;;;;;;5074801;28;20057;-87
2024/01/12 12:59:55;;;;;;;10.27;6.78;;;;;;;;;;5057059;28;20390;-87
2024/01/12 13:02:20;;;;;;;9.15;4.35;;;;;;;;;;5074440;28;20033;-86
2024/01/12 13:04:46;;;;;;;11.40;7.65;;;;;;;;;;5072931;28;20020;-86
2024/01/12 13:07:12;;;;;;;15.45;6.22;;;;;;;;;;5058696;28;20461;-87
2024/01/12 13:09:37;;;;;;;9.27;6.68;;;;;;;;;;5058149;28;20031;-86
2024/01/12 13:12:03;;;;;;;10.85;7.05;;;;;;;;;;5058970;28;20028;-87
2024/01/12 13:14:30;;;;;;;4.50;3.92;;;;;;;;;;5059136;28;20024;-87
2024/01/12 13:16:55;;;;;;;12.25;6.97;;;;;;;;;;5064386;28;20459;-87
2024/01/12 13:19:21;;;;;;;10.00;5.15;;;;;;;;;;5077671;28;20048;-86
2024/01/12 13:21:46;;;;;;;11.95;6.70;;;;;;;;;;5082560;28;20052;-85
2024/01/12 13:24:12;;;;;;;17.90;8.18;;;;;;;;;;5082610;28;20032;-86
2024/01/12 13:26:37;;;;;;;12.38;6.57;;;;;;;;;;5069738;28;20038;-86
2024/01/12 13:29:04;;;;;;;8.45;4.22;;;;;;;;;;5082063;28;20023;-85
2024/01/12 13:31:31;;;;;;;3.63;2.88;;;;;;;;;;5052925;28;20033;-86
2024/01/12 13:33:56;;;;;;;10.00;5.18;;;;;;;;;;5075452;28;20028;-85
2024/01/12 13:36:22;;;;;;;5.05;4.05;;;;;;;;;;5080564;28;20025;-86
2024/01/12 13:38:51;;;;;;;3.53;3.22;;;;;;;;;;5071900;28;20016;-84
2024/01/12 13:41:17;;;;;;;8.32;5.13;;;;;;;;;;5069628;28;20021;-86
2024/01/12 13:43:43;;;;;;;10.18;5.50;;;;;;;;;;5081745;28;20093;-84
2024/01/12 13:46:08;;;;;;;13.35;7.53;;;;;;;;;;5068801;28;20075;-86
2024/01/12 13:48:34;;;;;;;4.55;4.13;;;;;;;;;;5064933;28;20028;-86
2024/01/12 13:51:00;;;;;;;3.97;3.63;;;;;;;;;;5061820;28;20112;-84
2024/01/12 13:53:26;;;;;;;5.38;4.05;;;;;;;;;;5060563;28;20037;-84
2024/01/12 13:55:51;;;;;;;13.27;8.50;;;;;;;;;;5066763;28;20044;-86
2024/01/12 13:58:17;;;;;;;15.18;5.93;;;;;;;;;;5071419;28;20029;-84
2024/01/12 14:00:42;;;;;;;13.00;4.85;;;;;;;;;;5042954;28;20032;-87
2024/01/12 14:03:10;;;;;;;7.43;4.53;;;;;;;;;;5058032;28;20132;-85
2024/01/12 14:05:36;;;;;;;9.15;4.97;;;;;;;;;;5065150;28;20039;-87
2024/01/12 14:08:01;;;;;;;16.35;4.65;;;;;;;;;;5074925;28;20048;-86
2024/01/12 14:10:27;;;;;;;8.90;4.05;;;;;;;;;;5062505;28;20028;-86
2024/01/12 14:12:52;;;;;;;11.02;4.93;;;;;;;;;;5060168;28;20322;-87
2024/01/12 14:15:18;;;;;;;10.75;6.60;;;;;;;;;;5059399;28;20132;-84
2024/01/12 14:17:43;;;;;;;13.18;5.85;;;;;;;;;;5064876;28;20629;-85
2024/01/12 14:20:10;;;;;;;9.65;5.72;;;;;;;;;;5071791;28;20030;-85
2024/01/12 14:22:36;;;;;;;9.15;4.82;;;;;;;;;;5077060;28;20102;-87
2024/01/12 14:25:01;;;;;;;8.48;4.55;;;;;;;;;;5059716;28;20029;-84
2024/01/12 14:27:27;;;;;;;6.13;5.50;;;;;;;;;;5066315;28;20110;-86
2024/01/12 14:29:52;;;;;;;6.68;4.38;;;;;;;;;;5069518;28;20032;-86
2024/01/12 14:32:17;;;;;;;5.28;4.13;;;;;;;;;;5075017;28;20060;-84